Batavia, Iowa
Current Conditions -  °F | °C
As of 2:35 AM on Thursday 18 Dec 2014 (Local Time) from KFFL Reporting Station
Broken Clouds Broken Clouds  
Wind Chill: 15°   Ceiling: 13000
Heat Index: 21°   Visibility: 10mi
Dew Point: 16°   Wind: 5mph
Humidity: 80%   Direction: 20°NNE
Pressure: 30.29"   Gusts: NA
Location:  40.99°N, 92.17°W
Report Text: KFFL 180835Z AUTO 02004KT 10SM FEW090 BKN130 BKN150 M06/M09 A3029 RMK AO2
Loading
Personal Weather Stations






























Interactive Weather Map New forecast layout! Learn more

10-Day Weather Forecast

Advertisements
Track Severe Weather on mobile